Terminal Aerodrome Forecast
Issued by NWS Sterling, VA

Current Version | Previous Version | Graphics & Text | Print | Product List | Glossary On
Versions: 1 2 3 4 5 6 7 8 9 10 11 12 13 14 15 16 17 18 19 20 21 22
000
FTUS41 KLWX 292100 AAA
TAFDCA
TAF AMD
KDCA 292116Z 2921/3018 20005KT P6SM OVC100
     FM301000 VRB03KT 5SM BR OVC050
     FM301300 10003KT P6SM OVC100=

USA.gov is the U.S. government's official web portal to all federal, state and local government web resources and services.